createdAt,value
2023-04-01T00:01:51.800Z,2.67
2023-04-01T00:04:19.301Z,2.00
2023-04-01T00:06:48.610Z,2.00
2023-04-01T00:09:16.196Z,1.67
2023-04-01T00:11:43.248Z,2.00
2023-04-01T00:14:11.611Z,1.67
2023-04-01T00:16:38.706Z,3.00
2023-04-01T00:19:06.217Z,1.67
2023-04-01T00:21:33.360Z,2.00
2023-04-01T00:24:01.390Z,1.00
2023-04-01T00:26:28.470Z,1.00
2023-04-01T00:28:56.356Z,0.00
2023-04-01T00:31:23.384Z,1.00
2023-04-01T00:33:50.757Z,2.67
2023-04-01T00:36:20.935Z,0.33
2023-04-01T00:38:48.617Z,1.00
2023-04-01T00:41:17.030Z,0.33
2023-04-01T00:43:47.127Z,1.00
2023-04-01T00:46:14.199Z,0.67
2023-04-01T00:48:46.704Z,1.00
2023-04-01T00:51:29.468Z,1.00
2023-04-01T00:53:58.393Z,2.00
2023-04-01T00:56:29.136Z,2.00
2023-04-01T00:59:00.599Z,1.00
2023-04-01T01:01:29.477Z,1.00
2023-04-01T01:03:56.961Z,2.00
2023-04-01T01:06:40.856Z,1.00
2023-04-01T01:09:11.215Z,1.00
2023-04-01T01:11:44.009Z,1.00
2023-04-01T01:14:38.176Z,0.00
2023-04-01T01:17:25.878Z,1.00
2023-04-01T01:20:12.827Z,2.00
2023-04-01T01:23:21.464Z,1.00
2023-04-01T01:25:57.152Z,1.00
2023-04-01T01:28:27.524Z,1.00
2023-04-01T01:31:22.229Z,1.67
2023-04-01T01:34:04.243Z,3.00
2023-04-01T01:36:36.801Z,1.50
2023-04-01T01:39:06.299Z,1.00
2023-04-01T01:41:34.850Z,1.75
2023-04-01T01:44:04.240Z,1.25
2023-04-01T01:46:32.259Z,1.25
2023-04-01T01:49:00.910Z,1.00
2023-04-01T01:51:29.241Z,1.33
2023-04-01T01:53:56.344Z,1.67
2023-04-01T01:56:26.541Z,1.50
2023-04-01T01:59:02.120Z,2.00
2023-04-01T02:01:31.558Z,2.00
2023-04-01T02:03:59.141Z,7.75
2023-04-01T02:06:29.034Z,3.75
2023-04-01T02:09:00.920Z,2.00
2023-04-01T02:11:31.898Z,3.00
2023-04-01T02:14:21.131Z,2.67
2023-04-01T02:16:56.646Z,1.00
2023-04-01T02:19:29.220Z,4.33
2023-04-01T02:21:59.377Z,1.67
2023-04-01T02:24:28.241Z,1.67
2023-04-01T02:26:55.533Z,2.00
2023-04-01T02:29:25.635Z,1.00
2023-04-01T02:31:54.461Z,1.00
2023-04-01T02:34:23.678Z,2.00
2023-04-01T02:36:51.842Z,2.67
2023-04-01T02:39:19.303Z,1.00
2023-04-01T02:41:46.986Z,2.00
2023-04-01T02:44:15.615Z,1.33
2023-04-01T02:46:43.366Z,2.00
2023-04-01T02:49:10.508Z,3.00
2023-04-01T02:51:38.109Z,2.67
2023-04-01T02:54:05.409Z,3.00
2023-04-01T02:56:32.640Z,6.00
2023-04-01T02:58:59.860Z,9.00
2023-04-01T03:01:27.493Z,3.00
2023-04-01T03:03:54.414Z,7.33
2023-04-01T03:06:21.875Z,14.33
2023-04-01T03:08:49.038Z,6.00
2023-04-01T03:11:16.508Z,3.00
2023-04-01T03:13:43.685Z,3.00
2023-04-01T03:16:11.585Z,2.67
2023-04-01T03:18:38.542Z,4.67
2023-04-01T03:21:19.049Z,7.33
2023-04-01T03:23:46.405Z,3.00
2023-04-01T03:26:14.488Z,4.00
2023-04-01T03:28:41.456Z,2.67
2023-04-01T03:31:09.154Z,0.67
2023-04-01T03:33:36.112Z,2.67
2023-04-01T03:36:07.533Z,0.67
2023-04-01T03:38:36.047Z,2.00
2023-04-01T03:41:03.626Z,3.00
2023-04-01T03:43:30.647Z,3.00
2023-04-01T03:46:01.095Z,2.00
2023-04-01T03:48:28.193Z,3.33
2023-04-01T03:50:55.532Z,7.00
2023-04-01T03:53:23.169Z,2.33
2023-04-01T03:55:52.340Z,7.00
2023-04-01T03:58:19.498Z,5.00
2023-04-01T04:00:47.984Z,5.00
2023-04-01T04:03:15.343Z,2.00
2023-04-01T04:05:49.661Z,2.33
2023-04-01T04:08:17.576Z,1.00
2023-04-01T04:10:45.044Z,5.67
2023-04-01T04:13:12.172Z,3.25
2023-04-01T04:15:39.789Z,3.00
2023-04-01T04:18:06.771Z,4.00
2023-04-01T04:20:34.475Z,3.67
2023-04-01T04:23:01.590Z,9.00
2023-04-01T04:25:28.894Z,8.25
2023-04-01T04:27:55.929Z,2.00
2023-04-01T04:30:23.195Z,10.00
2023-04-01T04:32:53.332Z,6.25
2023-04-01T04:35:20.626Z,5.00
2023-04-01T04:37:47.728Z,10.75
2023-04-01T04:40:15.073Z,12.50
2023-04-01T04:42:41.973Z,9.75
2023-04-01T04:45:09.635Z,15.50
2023-04-01T04:47:36.598Z,11.00
2023-04-01T04:50:04.362Z,13.25
2023-04-01T04:52:31.508Z,13.00
2023-04-01T04:54:58.715Z,14.00
2023-04-01T04:57:26.281Z,15.25
2023-04-01T04:59:53.667Z,22.25
2023-04-01T05:02:20.819Z,19.00
2023-04-01T05:04:48.422Z,15.00
2023-04-01T05:07:15.660Z,15.00
2023-04-01T05:09:42.927Z,8.33
2023-04-01T05:12:09.987Z,5.00
2023-04-01T05:14:37.600Z,4.33
2023-04-01T05:17:04.708Z,4.00
2023-04-01T05:19:32.523Z,5.00
2023-04-01T05:21:59.569Z,3.00
2023-04-01T05:24:26.818Z,2.00
2023-04-01T05:26:55.263Z,5.00
2023-04-01T05:29:25.279Z,3.00
2023-04-01T05:31:52.502Z,1.67
2023-04-01T05:34:19.987Z,1.33
2023-04-01T05:36:47.004Z,3.00
2023-04-01T05:39:14.216Z,2.33
2023-04-01T05:41:41.631Z,8.00
2023-04-01T05:44:13.234Z,4.67
2023-04-01T05:46:40.185Z,3.00
2023-04-01T05:49:07.464Z,7.00
2023-04-01T05:51:34.621Z,1.33
2023-04-01T05:54:01.902Z,2.67
2023-04-01T05:56:28.859Z,3.67
2023-04-01T05:58:56.241Z,2.67
2023-04-01T06:01:23.365Z,3.00
2023-04-01T06:03:51.134Z,9.33
2023-04-01T06:06:26.437Z,3.33
2023-04-01T06:08:54.644Z,10.00
2023-04-01T06:11:38.139Z,9.00
2023-04-01T06:14:08.635Z,5.00
2023-04-01T06:16:55.771Z,5.00
2023-04-01T06:19:32.230Z,7.67
2023-04-01T06:22:17.690Z,8.00
2023-04-01T06:25:30.273Z,4.00
2023-04-01T06:28:20.066Z,2.33
2023-04-01T06:30:59.467Z,7.33
2023-04-01T06:33:51.432Z,3.33
2023-04-01T06:36:37.831Z,5.33
2023-04-01T06:39:11.268Z,2.33
2023-04-01T06:41:41.555Z,1.00
2023-04-01T06:44:24.372Z,2.00
2023-04-01T06:46:54.281Z,2.00
2023-04-01T06:49:46.086Z,2.00
2023-04-01T06:52:31.992Z,8.33
2023-04-01T06:55:22.801Z,3.00
2023-04-01T06:57:54.296Z,1.00
2023-04-01T07:00:27.597Z,2.00
2023-04-01T07:03:13.529Z,0.33
2023-04-01T07:05:40.895Z,2.00
2023-04-01T07:08:13.172Z,2.00
2023-04-01T07:10:49.486Z,3.00
2023-04-01T07:13:27.701Z,1.00
2023-04-01T07:16:28.468Z,2.67
2023-04-01T07:19:03.407Z,2.00
2023-04-01T07:21:36.860Z,2.00
2023-04-01T07:24:13.301Z,4.00
2023-04-01T07:26:41.006Z,1.00
2023-04-01T07:29:14.316Z,1.67
2023-04-01T07:32:05.914Z,0.00
2023-04-01T07:34:59.095Z,2.00
2023-04-01T07:37:32.555Z,1.00
2023-04-01T07:40:08.752Z,0.33
2023-04-01T07:42:46.148Z,2.00
2023-04-01T07:45:37.149Z,1.00
2023-04-01T07:48:13.181Z,2.67
2023-04-01T07:51:14.943Z,3.00
2023-04-01T07:54:09.079Z,0.00
2023-04-01T07:56:39.770Z,2.33
2023-04-01T07:59:31.078Z,1.00
2023-04-01T08:02:13.794Z,0.33
2023-04-01T08:04:47.062Z,1.00
2023-04-01T08:07:25.537Z,2.00
2023-04-01T08:09:55.589Z,0.67
2023-04-01T08:12:47.576Z,0.00
2023-04-01T08:15:28.613Z,2.00
2023-04-01T08:17:56.259Z,2.33
2023-04-01T08:20:29.427Z,4.00
2023-04-01T08:23:15.890Z,1.00
2023-04-01T08:25:58.089Z,1.00
2023-04-01T08:28:51.122Z,2.00
2023-04-01T08:31:32.611Z,1.33
2023-04-01T08:34:01.510Z,4.67
2023-04-01T08:36:40.882Z,0.33
2023-04-01T08:39:13.656Z,3.00
2023-04-01T08:41:46.774Z,4.00
2023-04-01T08:44:14.175Z,3.00
2023-04-01T08:47:11.945Z,3.00
2023-04-01T08:49:51.215Z,2.00
2023-04-01T08:52:37.188Z,3.67
2023-04-01T08:55:26.656Z,6.00
2023-04-01T08:58:07.511Z,6.00
2023-04-01T09:00:54.851Z,2.33
2023-04-01T09:03:25.093Z,3.33
2023-04-01T09:05:55.619Z,4.00
2023-04-01T09:08:55.022Z,5.00
2023-04-01T09:11:44.418Z,4.00
2023-04-01T09:14:46.483Z,3.67
2023-04-01T09:17:36.012Z,2.00
2023-04-01T09:20:21.945Z,3.00
2023-04-01T09:22:52.905Z,2.33
2023-04-01T09:25:47.086Z,7.33
2023-04-01T09:28:20.599Z,5.00
2023-04-01T09:31:06.956Z,3.00
2023-04-01T09:34:02.012Z,4.67
2023-04-01T09:36:54.749Z,3.00
2023-04-01T09:39:41.385Z,5.00
2023-04-01T09:42:14.773Z,3.00
2023-04-01T09:44:49.997Z,8.33
2023-04-01T09:47:49.888Z,6.00
2023-04-01T09:50:44.366Z,7.67
2023-04-01T09:53:34.263Z,11.33
2023-04-01T09:56:22.906Z,9.67
2023-04-01T09:59:37.039Z,6.00
2023-04-01T10:02:23.006Z,12.33
2023-04-01T10:05:12.101Z,17.00
2023-04-01T10:07:42.622Z,9.33
2023-04-01T10:10:28.824Z,11.00
2023-04-01T10:13:50.126Z,7.00
2023-04-01T10:16:35.733Z,5.67
2023-04-01T10:19:13.237Z,11.00
2023-04-01T10:22:12.844Z,3.67
2023-04-01T10:25:11.810Z,5.33
2023-04-01T10:28:00.121Z,5.33
2023-04-01T10:30:43.444Z,5.00
2023-04-01T10:33:38.695Z,3.33
2023-04-01T10:36:27.222Z,8.33
2023-04-01T10:39:22.866Z,2.00
2023-04-01T10:42:12.379Z,4.67
2023-04-01T10:45:04.029Z,2.00
2023-04-01T10:47:37.525Z,2.33
2023-04-01T10:50:18.676Z,4.00
2023-04-01T10:53:09.873Z,4.00
2023-04-01T10:56:01.631Z,6.00
2023-04-01T10:59:08.117Z,3.00
2023-04-01T11:02:12.788Z,12.67
2023-04-01T11:04:58.213Z,18.67
2023-04-01T11:07:31.692Z,10.00
2023-04-01T11:10:11.818Z,6.33
2023-04-01T11:12:44.330Z,2.00
2023-04-01T11:15:26.097Z,0.67
2023-04-01T11:18:01.350Z,2.00
2023-04-01T11:20:55.740Z,6.33
2023-04-01T11:24:04.512Z,1.00
2023-04-01T11:26:34.323Z,2.00
2023-04-01T11:29:23.281Z,4.00
2023-04-01T11:32:06.260Z,4.67
2023-04-01T11:34:39.454Z,5.00
2023-04-01T11:37:13.254Z,2.00
2023-04-01T11:39:57.117Z,2.00
2023-04-01T11:42:32.703Z,1.00
2023-04-01T11:45:23.290Z,1.67
2023-04-01T11:47:57.905Z,1.00
2023-04-01T11:50:34.034Z,2.00
2023-04-01T11:53:32.633Z,3.00
2023-04-01T11:56:30.962Z,5.67
2023-04-01T11:59:04.134Z,0.00
2023-04-01T12:01:58.926Z,3.00
2023-04-01T12:04:45.210Z,1.00
2023-04-01T12:07:31.519Z,2.00
2023-04-01T12:10:17.563Z,3.33
2023-04-01T12:13:03.739Z,2.00
2023-04-01T12:15:44.830Z,0.00
2023-04-01T12:18:37.499Z,0.00
2023-04-01T12:21:26.178Z,1.00
2023-04-01T12:23:53.336Z,3.00
2023-04-01T12:26:59.591Z,0.33
2023-04-01T12:29:45.085Z,2.00
2023-04-01T12:32:21.713Z,8.33
2023-04-01T12:35:03.524Z,1.67
2023-04-01T12:37:46.504Z,6.00
2023-04-01T12:40:47.376Z,12.67
2023-04-01T12:43:37.013Z,1.33
2023-04-01T12:46:15.620Z,4.00
2023-04-01T12:49:21.389Z,10.67
2023-04-01T12:52:11.907Z,15.33
2023-04-01T12:55:27.298Z,9.67
2023-04-01T12:58:25.457Z,6.67
2023-04-01T13:01:29.981Z,8.00
2023-04-01T13:04:31.348Z,8.67
2023-04-01T13:07:24.629Z,9.00
2023-04-01T13:10:02.894Z,9.00
2023-04-01T13:12:48.543Z,4.00
2023-04-01T13:15:24.460Z,7.00
2023-04-01T13:18:23.318Z,9.00
2023-04-01T13:21:07.170Z,8.33
2023-04-01T13:24:10.410Z,4.00
2023-04-01T13:27:14.982Z,8.67
2023-04-01T13:30:10.505Z,4.67
2023-04-01T13:33:02.939Z,5.67
2023-04-01T13:35:49.147Z,3.00
2023-04-01T13:38:29.541Z,10.00
2023-04-01T13:41:35.488Z,9.00
2023-04-01T13:44:14.161Z,21.67
2023-04-01T13:46:59.582Z,24.67
2023-04-01T13:49:48.269Z,43.50
2023-04-01T13:52:25.685Z,2.00
2023-04-01T13:55:01.059Z,2.00
2023-04-01T13:57:54.089Z,5.00
2023-04-01T14:00:47.623Z,0.00
2023-04-01T14:03:24.326Z,7.00
2023-04-01T14:06:00.680Z,3.00
2023-04-01T14:08:45.190Z,10.67
2023-04-01T14:11:26.304Z,8.33
2023-04-01T14:14:30.252Z,9.67
2023-04-01T14:17:04.982Z,19.67
2023-04-01T14:20:03.656Z,14.33
2023-04-01T14:22:36.871Z,16.67
2023-04-01T14:25:37.428Z,16.67
2023-04-01T14:28:12.035Z,11.00
2023-04-01T14:30:59.745Z,6.67
2023-04-01T14:34:00.790Z,8.00
2023-04-01T14:36:39.454Z,4.00
2023-04-01T14:39:35.439Z,4.33
2023-04-01T14:42:27.634Z,9.00
2023-04-01T14:45:20.093Z,2.00
2023-04-01T14:48:19.281Z,3.00
2023-04-01T14:50:49.072Z,2.33
2023-04-01T14:53:28.930Z,4.67
2023-04-01T14:55:58.910Z,2.00
2023-04-01T14:58:42.101Z,5.00
2023-04-01T15:01:21.975Z,6.67
2023-04-01T15:03:58.091Z,3.67
2023-04-01T15:06:58.000Z,5.00
2023-04-01T15:10:10.008Z,4.00
2023-04-01T15:12:47.944Z,3.33
2023-04-01T15:15:40.254Z,3.67
2023-04-01T15:18:15.430Z,1.67
2023-04-01T15:21:07.836Z,5.00
2023-04-01T15:23:46.538Z,4.00
2023-04-01T15:26:48.131Z,2.33
2023-04-01T15:29:33.307Z,3.00
2023-04-01T15:32:01.975Z,2.00
2023-04-01T15:34:46.738Z,4.67
2023-04-01T15:37:33.134Z,10.33
2023-04-01T15:40:21.926Z,12.00
2023-04-01T15:43:02.922Z,3.67
2023-04-01T15:45:51.825Z,9.33
2023-04-01T15:48:31.187Z,9.33
2023-04-01T15:51:19.130Z,8.33
2023-04-01T15:53:55.220Z,5.33
2023-04-01T15:56:43.751Z,5.67
2023-04-01T15:59:31.797Z,11.67
2023-04-01T16:02:08.913Z,6.00
2023-04-01T16:04:53.912Z,10.00
2023-04-01T16:07:45.408Z,5.33
2023-04-01T16:10:39.759Z,8.00
2023-04-01T16:13:48.968Z,1.67
2023-04-01T16:16:19.404Z,5.00
2023-04-01T16:18:50.000Z,4.33
2023-04-01T16:21:45.368Z,8.00
2023-04-01T16:24:52.821Z,7.00
2023-04-01T16:27:23.272Z,9.00
2023-04-01T16:30:12.413Z,3.00
2023-04-01T16:32:47.970Z,4.33
2023-04-01T16:35:37.471Z,11.00
2023-04-01T16:38:06.848Z,7.67
2023-04-01T16:41:04.652Z,4.00
2023-04-01T16:43:40.797Z,2.00
2023-04-01T16:46:23.341Z,3.00
2023-04-01T16:49:01.230Z,2.00
2023-04-01T16:51:58.873Z,2.75
2023-04-01T16:54:45.501Z,4.00
2023-04-01T16:57:20.826Z,7.00
2023-04-01T17:00:15.638Z,6.50
2023-04-01T17:03:18.886Z,9.00
2023-04-01T17:06:06.720Z,39.25
2023-04-01T17:08:48.741Z,21.50
2023-04-01T17:11:29.996Z,34.50
2023-04-01T17:14:15.641Z,61.50
2023-04-01T17:17:20.946Z,44.00
2023-04-01T17:19:59.858Z,54.25
2023-04-01T17:22:39.418Z,56.00
2023-04-01T17:25:45.474Z,49.75
2023-04-01T17:28:31.061Z,57.25
2023-04-01T17:31:04.852Z,81.75
2023-04-01T17:33:59.561Z,91.00
2023-04-01T17:36:45.753Z,72.25
2023-04-01T17:39:40.673Z,99.50
2023-04-01T17:42:24.209Z,60.00
2023-04-01T17:44:57.987Z,62.00
2023-04-01T17:47:56.383Z,57.75
2023-04-01T17:51:01.831Z,70.00
2023-04-01T17:53:57.808Z,46.00
2023-04-01T17:56:37.126Z,41.50
2023-04-01T17:59:17.068Z,49.75
2023-04-01T18:02:02.835Z,57.75
2023-04-01T18:04:38.161Z,57.00
2023-04-01T18:07:17.892Z,57.75
2023-04-01T18:10:25.492Z,50.00
2023-04-01T18:13:14.779Z,51.00
2023-04-01T18:16:13.367Z,54.75
2023-04-01T18:19:03.884Z,44.25
2023-04-01T18:21:54.003Z,46.25
2023-04-01T18:24:34.928Z,58.00
2023-04-01T18:27:06.894Z,53.75
2023-04-01T18:30:00.451Z,53.50
2023-04-01T18:33:09.498Z,45.00
2023-04-01T18:35:50.538Z,50.50
2023-04-01T18:38:30.978Z,60.00
2023-04-01T18:41:17.402Z,66.50
2023-04-01T18:44:16.007Z,58.50
2023-04-01T18:47:15.270Z,58.75
2023-04-01T18:50:01.385Z,39.75
2023-04-01T18:52:41.986Z,41.75
2023-04-01T18:55:17.892Z,39.50
2023-04-01T18:57:57.722Z,40.50
2023-04-01T19:00:35.371Z,37.75
2023-04-01T19:03:33.954Z,44.00
2023-04-01T19:06:03.311Z,46.00
2023-04-01T19:08:37.170Z,46.50
2023-04-01T19:11:11.901Z,60.00
2023-04-01T19:14:02.831Z,50.75
2023-04-01T19:16:33.152Z,54.00
2023-04-01T19:19:14.404Z,54.75
2023-04-01T19:22:19.894Z,49.00
2023-04-01T19:25:25.708Z,55.25
2023-04-01T19:28:23.948Z,49.25
2023-04-01T19:31:01.080Z,54.50
2023-04-01T19:34:22.134Z,46.50
2023-04-01T19:36:58.335Z,51.25
2023-04-01T19:39:35.196Z,55.00
2023-04-01T19:42:42.616Z,50.75
2023-04-01T19:45:29.844Z,33.75
2023-04-01T19:48:03.153Z,45.00
2023-04-01T19:50:51.922Z,54.75
2023-04-01T19:53:28.857Z,5.00
2023-04-01T19:56:02.219Z,33.75
2023-04-01T19:58:57.427Z,24.75
2023-04-01T20:01:50.859Z,31.25
2023-04-01T20:04:43.630Z,34.50
2023-04-01T20:07:17.007Z,45.75
2023-04-01T20:10:20.846Z,39.75
2023-04-01T20:12:50.088Z,38.50
2023-04-01T20:15:34.748Z,48.50
2023-04-01T20:18:07.601Z,44.00
2023-04-01T20:20:35.994Z,42.00
2023-04-01T20:23:46.769Z,42.50
2023-04-01T20:26:16.061Z,46.50
2023-04-01T20:28:45.364Z,52.00
2023-04-01T20:31:16.482Z,47.25
2023-04-01T20:34:23.310Z,45.50
2023-04-01T20:37:10.940Z,39.25
2023-04-01T20:40:16.097Z,32.25
2023-04-01T20:43:12.312Z,25.00
2023-04-01T20:46:10.559Z,23.25
2023-04-01T20:48:44.124Z,28.50
2023-04-01T20:51:16.031Z,31.50
2023-04-01T20:54:08.979Z,42.75
2023-04-01T20:56:57.470Z,39.25
2023-04-01T20:59:48.811Z,52.00
2023-04-01T21:02:47.899Z,53.25
2023-04-01T21:05:36.723Z,54.00
2023-04-01T21:08:22.091Z,54.25
2023-04-01T21:11:17.185Z,58.50
2023-04-01T21:14:15.521Z,61.25
2023-04-01T21:16:57.952Z,52.50
2023-04-01T21:19:26.780Z,56.00
2023-04-01T21:22:21.337Z,62.00
2023-04-01T21:25:13.343Z,50.00
2023-04-01T21:27:48.720Z,44.75
2023-04-01T21:30:53.463Z,44.50
2023-04-01T21:33:46.410Z,49.25
2023-04-01T21:36:35.760Z,42.75
2023-04-01T21:39:40.747Z,46.25
2023-04-01T21:42:25.661Z,38.75
2023-04-01T21:45:28.516Z,37.00
2023-04-01T21:48:14.616Z,52.50
2023-04-01T21:51:00.028Z,42.00
2023-04-01T21:53:56.122Z,49.75
2023-04-01T21:56:58.760Z,58.00
2023-04-01T22:00:02.841Z,55.25
2023-04-01T22:03:26.256Z,57.00
2023-04-01T22:06:31.974Z,53.25
2023-04-01T22:09:20.078Z,47.75
2023-04-01T22:12:00.569Z,53.25
2023-04-01T22:14:44.817Z,53.25
2023-04-01T22:17:26.860Z,53.00
2023-04-01T22:20:10.485Z,48.50
2023-04-01T22:22:57.079Z,52.50
2023-04-01T22:25:50.209Z,57.00
2023-04-01T22:28:25.082Z,46.75
2023-04-01T22:30:54.069Z,56.25
2023-04-01T22:33:36.957Z,54.75
2023-04-01T22:36:26.912Z,50.75
2023-04-01T22:39:11.242Z,50.00
2023-04-01T22:41:47.536Z,49.00
2023-04-01T22:44:45.885Z,48.50
2023-04-01T22:47:50.832Z,48.00
2023-04-01T22:50:25.941Z,56.00
2023-04-01T22:53:04.183Z,53.50
2023-04-01T22:55:35.147Z,52.50
2023-04-01T22:58:09.844Z,51.75
2023-04-01T23:00:42.023Z,50.75
2023-04-01T23:03:31.801Z,54.00
2023-04-01T23:06:01.283Z,54.00
2023-04-01T23:08:37.564Z,55.25
2023-04-01T23:11:10.305Z,56.50
2023-04-01T23:13:43.460Z,55.75
2023-04-01T23:16:11.577Z,57.00
2023-04-01T23:18:51.341Z,55.00
2023-04-01T23:21:53.385Z,43.75
2023-04-01T23:24:34.585Z,52.00
2023-04-01T23:27:18.849Z,50.50
2023-04-01T23:29:46.390Z,52.50
2023-04-01T23:32:19.113Z,52.75
2023-04-01T23:34:51.966Z,53.25
2023-04-01T23:37:20.376Z,50.75
2023-04-01T23:39:50.749Z,52.50
2023-04-01T23:42:26.748Z,53.75
2023-04-01T23:44:57.136Z,53.75
2023-04-01T23:47:28.097Z,56.00
2023-04-01T23:49:58.972Z,53.50
2023-04-01T23:52:32.060Z,48.25
2023-04-01T23:55:04.313Z,45.50
2023-04-01T23:57:36.679Z,43.25
